Terminal Aerodrome Forecast
Issued by NWS

Home | Current Version | Previous Version | Text Only | Print | Product List | Glossary On
Versions: 1 2 3 4 5 6 7 8 9 10 11 12 13 14 15 16 17 18 19 20 21 22 23 24
000
FTUS45 KABQ 260142 AAB
TAFROW
TAF AMD
KROW 260142Z 2602/2624 10010KT P6SM SCT050
     FM260300 11013KT P6SM SCT035
     FM260600 06010KT P6SM -RA BKN025
     FM261100 01014G22KT 5SM -RA BR OVC010
     FM261600 01013KT 5SM -RA BR OVC008=

USA.gov is the U.S. government's official web portal to all federal, state and local government web resources and services.